Time;durP1;ratioP1;P1;durP2;ratioP2;P2;SDS_P1;SDS_P2;PMS_P1;PMS_P2;Temp;Humidity;BMP_temperature;BMP_pressure;BME280_temperature;BME280_humidity;BME280_pressure;Samples;Min_cycle;Max_cycle;Signal;HPM_P1;HPM_P2
2021/01/25 00:02:04;;;;;;;1.87;1.27;;;0.10;99.90;;;;;;4970383;28;20458;-50
2021/01/25 00:04:31;;;;;;;1.83;1.23;;;0.10;99.90;;;;;;4970735;28;20971;-49
2021/01/25 00:06:58;;;;;;;2.90;1.57;;;0.10;99.90;;;;;;4970104;28;20481;-49
2021/01/25 00:09:24;;;;;;;2.43;1.20;;;0.20;99.90;;;;;;4971888;28;20479;-49
2021/01/25 00:11:51;;;;;;;4.07;1.83;;;0.20;99.90;;;;;;4971784;28;20490;-49
2021/01/25 00:14:17;;;;;;;2.23;1.30;;;0.20;99.90;;;;;;4965248;28;20948;-49
2021/01/25 00:16:44;;;;;;;1.90;1.37;;;0.30;99.90;;;;;;4969427;28;20461;-49
2021/01/25 00:19:11;;;;;;;2.70;1.37;;;0.30;99.90;;;;;;4969903;28;20481;-49
2021/01/25 00:21:38;;;;;;;1.03;0.93;;;0.30;99.90;;;;;;4969515;28;20467;-49
2021/01/25 00:24:05;;;;;;;1.53;1.20;;;0.30;99.90;;;;;;4967787;28;20955;-49
2021/01/25 00:26:32;;;;;;;3.47;1.27;;;0.40;99.90;;;;;;4971189;28;20534;-49
2021/01/25 00:28:58;;;;;;;2.03;1.40;;;0.50;99.90;;;;;;4971465;28;20470;-49
2021/01/25 00:31:24;;;;;;;3.50;1.50;;;0.40;99.90;;;;;;4957453;28;20490;-49
2021/01/25 00:33:51;;;;;;;1.73;1.33;;;0.40;99.90;;;;;;4974963;28;20458;-50
2021/01/25 00:36:18;;;;;;;1.10;1.00;;;0.50;99.90;;;;;;4975659;28;20470;-49
2021/01/25 00:38:45;;;;;;;2.93;1.20;;;0.30;99.90;;;;;;4959931;28;20491;-49
2021/01/25 00:41:11;;;;;;;1.50;1.40;;;0.30;99.90;;;;;;4963731;28;20522;-49
2021/01/25 00:43:41;;;;;;;2.87;1.97;;;0.30;99.90;;;;;;4968388;28;20462;-49
2021/01/25 00:46:07;;;;;;;3.97;1.53;;;0.40;99.90;;;;;;4974543;28;20459;-49
2021/01/25 00:48:34;;;;;;;1.93;1.37;;;0.40;99.90;;;;;;4974926;28;20478;-49
2021/01/25 00:51:00;;;;;;;1.53;1.10;;;0.60;99.90;;;;;;4975368;28;20501;-49
2021/01/25 00:53:28;;;;;;;1.47;1.10;;;0.70;99.90;;;;;;4969641;28;20454;-49
2021/01/25 00:55:54;;;;;;;0.90;0.80;;;0.70;99.90;;;;;;4973582;28;20455;-49
2021/01/25 00:58:21;;;;;;;1.47;1.20;;;0.70;99.90;;;;;;4975522;28;20478;-49
2021/01/25 01:00:47;;;;;;;2.40;1.20;;;0.50;99.90;;;;;;4974977;28;20458;-49
2021/01/25 01:03:14;;;;;;;3.03;1.60;;;0.40;99.90;;;;;;4974744;28;20462;-49
2021/01/25 01:05:41;;;;;;;2.33;1.30;;;0.30;99.90;;;;;;4974871;28;20514;-49
2021/01/25 01:08:07;;;;;;;2.40;1.60;;;0.20;99.90;;;;;;4975191;28;20517;-49
2021/01/25 01:10:34;;;;;;;1.60;1.47;;;0.20;99.90;;;;;;4962544;28;20888;-49
2021/01/25 01:13:01;;;;;;;3.60;1.50;;;0.30;99.90;;;;;;4974349;28;20465;-49
2021/01/25 01:15:28;;;;;;;2.30;1.27;;;0.30;99.90;;;;;;4974316;28;20457;-49
2021/01/25 01:17:54;;;;;;;4.50;1.10;;;0.30;99.90;;;;;;4974505;28;20468;-49
2021/01/25 01:20:21;;;;;;;1.27;1.17;;;0.50;99.90;;;;;;4973831;28;20472;-49
2021/01/25 01:22:47;;;;;;;1.53;1.30;;;0.60;99.90;;;;;;4974481;28;20459;-49
2021/01/25 01:25:14;;;;;;;2.07;1.10;;;0.50;99.90;;;;;;4974641;28;20492;-49
2021/01/25 01:27:41;;;;;;;0.93;0.80;;;0.40;99.90;;;;;;4974783;28;20461;-49
2021/01/25 01:30:09;;;;;;;0.83;0.80;;;0.30;99.90;;;;;;4974266;28;20485;-49
2021/01/25 01:32:35;;;;;;;0.80;0.70;;;0.50;99.90;;;;;;4974316;28;20466;-49
2021/01/25 01:35:02;;;;;;;0.80;0.60;;;0.50;99.90;;;;;;4973674;28;20458;-49
2021/01/25 01:37:29;;;;;;;0.70;0.60;;;0.50;99.90;;;;;;4974545;28;20969;-49
2021/01/25 01:39:55;;;;;;;1.10;0.60;;;0.50;99.90;;;;;;4974416;28;20492;-49
2021/01/25 01:42:22;;;;;;;1.70;0.70;;;0.50;99.90;;;;;;4973583;28;20455;-49
2021/01/25 01:44:49;;;;;;;1.73;0.77;;;0.70;99.90;;;;;;4973923;28;20454;-49
2021/01/25 01:47:21;;;;;;;1.10;0.70;;;0.60;99.90;;;;;;4974193;28;20457;-49
2021/01/25 01:49:50;;;;;;;0.90;0.70;;;0.60;99.90;;;;;;4955163;28;20481;-49
2021/01/25 01:52:16;;;;;;;0.60;0.60;;;0.60;99.90;;;;;;4970629;28;20462;-49
2021/01/25 01:54:43;;;;;;;0.60;0.60;;;0.70;99.90;;;;;;4973977;28;20469;-49
2021/01/25 01:57:10;;;;;;;0.90;0.70;;;0.60;99.90;;;;;;4973901;28;20453;-48
2021/01/25 01:59:37;;;;;;;1.30;0.70;;;0.50;99.90;;;;;;4972297;28;20477;-49
2021/01/25 02:02:05;;;;;;;0.70;0.70;;;0.50;99.90;;;;;;4973982;28;20457;-49
2021/01/25 02:04:33;;;;;;;1.10;0.63;;;0.50;99.90;;;;;;4973537;28;20453;-49
2021/01/25 02:07:02;;;;;;;1.20;0.80;;;0.40;99.90;;;;;;4972660;28;20462;-49
2021/01/25 02:09:30;;;;;;;1.50;0.70;;;0.40;99.90;;;;;;4973908;28;20477;-49
2021/01/25 02:11:58;;;;;;;1.10;0.80;;;0.30;99.90;;;;;;4971830;28;20832;-49
2021/01/25 02:14:26;;;;;;;3.43;0.60;;;0.40;99.90;;;;;;4973365;28;20457;-49
2021/01/25 02:16:53;;;;;;;0.97;0.63;;;0.30;99.90;;;;;;4955622;28;20461;-49
2021/01/25 02:19:25;;;;;;;1.30;0.80;;;0.30;99.90;;;;;;4959148;28;20472;-49
2021/01/25 02:21:57;;;;;;;1.03;0.60;;;0.30;99.90;;;;;;4973899;28;20451;-49
2021/01/25 02:24:31;;;;;;;1.27;0.87;;;0.30;99.90;;;;;;4973538;28;20449;-49
2021/01/25 02:27:15;;;;;;;1.00;0.70;;;0.60;99.90;;;;;;4973532;28;20869;-49
2021/01/25 02:29:45;;;;;;;0.90;0.67;;;0.60;99.90;;;;;;4967400;28;20542;-49
2021/01/25 02:32:12;;;;;;;0.73;0.73;;;0.60;99.90;;;;;;4955779;28;20452;-48
2021/01/25 02:34:40;;;;;;;0.70;0.70;;;0.40;99.90;;;;;;4954215;29;20451;-49
2021/01/25 02:37:10;;;;;;;0.90;0.73;;;0.40;99.90;;;;;;4954425;29;20971;-49
2021/01/25 02:39:38;;;;;;;0.93;0.50;;;0.70;99.90;;;;;;4995765;23;20497;-48
2021/01/25 02:42:06;;;;;;;0.77;0.50;;;0.80;99.90;;;;;;4992726;28;20504;-48
2021/01/25 02:44:35;;;;;;;0.83;0.50;;;0.90;99.90;;;;;;4992340;28;20449;-48
2021/01/25 02:47:03;;;;;;;0.70;0.50;;;0.90;99.90;;;;;;4992680;28;20453;-48
2021/01/25 02:49:30;;;;;;;1.00;0.63;;;1.00;99.90;;;;;;4992697;28;20477;-48
2021/01/25 02:51:56;;;;;;;0.90;0.70;;;0.90;99.90;;;;;;4992908;28;20493;-48
2021/01/25 02:54:23;;;;;;;0.70;0.60;;;0.90;99.90;;;;;;4990122;28;20552;-48
2021/01/25 02:56:49;;;;;;;1.20;0.80;;;0.80;99.90;;;;;;4985852;28;20467;-48
2021/01/25 02:59:17;;;;;;;1.00;0.70;;;0.70;99.90;;;;;;4992336;28;20481;-48
2021/01/25 03:01:46;;;;;;;0.90;0.67;;;0.60;99.90;;;;;;4992141;28;20452;-48
2021/01/25 03:04:14;;;;;;;1.60;0.73;;;0.60;99.90;;;;;;4992225;28;20465;-48
2021/01/25 03:06:41;;;;;;;1.57;0.63;;;0.60;99.90;;;;;;4992503;28;20829;-48
2021/01/25 03:09:08;;;;;;;0.90;0.80;;;0.60;99.90;;;;;;4991138;28;20561;-48
2021/01/25 03:11:35;;;;;;;1.10;1.00;;;0.70;99.90;;;;;;4992362;28;21061;-48
2021/01/25 03:14:08;;;;;;;1.37;0.60;;;0.70;99.90;;;;;;4991724;28;20456;-49
2021/01/25 03:16:42;;;;;;;0.70;0.60;;;0.70;99.90;;;;;;5129232;27;20589;-50
2021/01/25 03:19:08;;;;;;;0.70;0.57;;;1.00;99.90;;;;;;5129275;27;20467;-50
2021/01/25 03:21:35;;;;;;;1.43;0.73;;;0.90;99.90;;;;;;5128502;27;20447;-50
2021/01/25 03:24:03;;;;;;;0.80;0.60;;;0.70;99.90;;;;;;5120856;27;21131;-50
2021/01/25 03:26:30;;;;;;;1.17;0.60;;;0.50;99.90;;;;;;5108613;27;20478;-50
2021/01/25 03:28:57;;;;;;;0.80;0.60;;;0.30;99.90;;;;;;5108994;28;20474;-50
2021/01/25 03:31:23;;;;;;;0.93;0.93;;;0.10;99.90;;;;;;5128850;28;20451;-50
2021/01/25 03:33:50;;;;;;;3.97;0.80;;;0.10;99.90;;;;;;5128667;27;20951;-50
2021/01/25 03:36:17;;;;;;;1.57;0.73;;;0.00;99.90;;;;;;5128678;27;20815;-50
2021/01/25 03:38:44;;;;;;;1.67;0.80;;;0.00;99.90;;;;;;5127803;27;20538;-50
2021/01/25 03:41:11;;;;;;;1.63;0.70;;;0.10;99.90;;;;;;5126822;27;20455;-50
2021/01/25 03:43:37;;;;;;;0.90;0.60;;;-0.10;99.90;;;;;;5124760;27;20498;-50
2021/01/25 03:46:04;;;;;;;0.60;0.53;;;0.00;99.90;;;;;;5128479;27;20482;-50
2021/01/25 03:48:30;;;;;;;0.80;0.80;;;-0.10;99.90;;;;;;5128474;27;20807;-50
2021/01/25 03:50:58;;;;;;;0.63;0.60;;;-0.20;99.90;;;;;;5128227;27;20454;-50
2021/01/25 03:53:24;;;;;;;1.33;0.90;;;-0.40;99.90;;;;;;5115335;27;20451;-50
2021/01/25 03:55:51;;;;;;;1.93;0.50;;;-0.50;99.90;;;;;;5108721;28;20455;-50
2021/01/25 03:58:17;;;;;;;0.80;0.60;;;-0.40;99.90;;;;;;5120696;27;20449;-50
2021/01/25 04:00:44;;;;;;;1.00;0.57;;;-0.40;99.90;;;;;;5109505;27;20477;-50
2021/01/25 04:03:11;;;;;;;0.80;0.60;;;-0.30;99.90;;;;;;5107875;28;20462;-50
2021/01/25 04:05:38;;;;;;;0.80;0.70;;;-0.30;99.90;;;;;;5107539;28;20479;-49
2021/01/25 04:08:05;;;;;;;1.40;0.83;;;-0.30;99.90;;;;;;5120337;28;20873;-50
2021/01/25 04:10:32;;;;;;;1.53;0.60;;;-0.30;99.90;;;;;;5126237;27;20468;-50
2021/01/25 04:12:58;;;;;;;1.40;0.87;;;-0.20;99.90;;;;;;5112945;27;20514;-50
2021/01/25 04:15:25;;;;;;;1.53;0.83;;;-0.20;99.90;;;;;;5108457;28;20515;-50
2021/01/25 04:17:51;;;;;;;1.37;1.27;;;-0.20;99.90;;;;;;5107557;28;20451;-50
2021/01/25 04:20:18;;;;;;;1.67;0.83;;;-0.20;99.90;;;;;;5107294;28;20467;-50
2021/01/25 04:22:44;;;;;;;0.80;0.60;;;-0.30;99.90;;;;;;5114072;28;20443;-50
2021/01/25 04:25:12;;;;;;;0.93;0.60;;;-0.40;99.90;;;;;;5111813;27;20481;-50
2021/01/25 04:27:39;;;;;;;1.80;0.83;;;-0.50;99.90;;;;;;5100359;28;20454;-50
2021/01/25 04:30:08;;;;;;;1.53;0.83;;;-0.50;99.90;;;;;;5098575;28;21238;-49
2021/01/25 04:32:35;;;;;;;1.57;1.10;;;-0.60;99.90;;;;;;5102979;28;20877;-49
2021/01/25 04:35:02;;;;;;;1.83;1.70;;;-0.60;99.90;;;;;;5113842;28;20446;-50
2021/01/25 04:37:29;;;;;;;1.17;1.00;;;-0.40;99.90;;;;;;5112610;28;20461;-50
2021/01/25 04:39:55;;;;;;;1.27;1.17;;;-0.30;99.90;;;;;;5100200;28;20492;-50
2021/01/25 04:42:23;;;;;;;3.37;0.90;;;-0.10;99.90;;;;;;5093330;28;20948;-50
2021/01/25 04:44:51;;;;;;;2.10;1.03;;;-0.10;99.90;;;;;;5094074;28;20502;-49
2021/01/25 04:47:20;;;;;;;1.50;0.87;;;0.00;99.90;;;;;;5104121;28;20457;-49
2021/01/25 04:49:49;;;;;;;1.37;0.90;;;-0.10;99.90;;;;;;5096350;28;20477;-50
2021/01/25 04:52:17;;;;;;;0.90;0.70;;;0.00;99.90;;;;;;5093287;28;20452;-50
2021/01/25 04:54:45;;;;;;;1.43;1.00;;;0.10;99.90;;;;;;5101883;28;20464;-50
2021/01/25 04:57:14;;;;;;;1.00;0.83;;;-0.10;99.90;;;;;;5095982;28;20453;-50
2021/01/25 04:59:42;;;;;;;1.67;1.23;;;0.20;99.90;;;;;;5097122;28;20558;-50
2021/01/25 05:02:10;;;;;;;1.63;1.10;;;0.20;99.90;;;;;;5099050;28;20542;-50
2021/01/25 05:04:36;;;;;;;1.10;1.00;;;0.20;99.90;;;;;;5098866;28;20578;-49
2021/01/25 05:07:03;;;;;;;1.10;1.00;;;0.50;99.90;;;;;;5094911;28;20449;-49
2021/01/25 05:09:29;;;;;;;0.77;0.70;;;0.40;99.90;;;;;;5103167;28;20471;-50
2021/01/25 05:11:57;;;;;;;0.60;0.60;;;0.30;99.90;;;;;;5104710;28;20839;-50
2021/01/25 05:14:24;;;;;;;0.83;0.70;;;0.20;99.90;;;;;;5101188;28;20589;-50
2021/01/25 05:16:52;;;;;;;1.40;0.83;;;0.40;99.90;;;;;;5112173;28;20505;-49
2021/01/25 05:19:18;;;;;;;2.13;0.80;;;0.20;99.90;;;;;;5111380;28;20611;-50
2021/01/25 05:21:46;;;;;;;0.90;0.90;;;0.00;99.90;;;;;;5098531;28;20504;-49
2021/01/25 05:24:14;;;;;;;1.80;0.60;;;0.10;99.90;;;;;;5092540;28;20448;-49
2021/01/25 05:26:51;;;;;;;1.20;0.73;;;0.10;99.90;;;;;;5092680;28;20890;-49
2021/01/25 05:29:24;;;;;;;0.90;0.80;;;0.00;99.90;;;;;;5096684;28;20461;-50
2021/01/25 05:31:52;;;;;;;0.77;0.77;;;-0.20;99.90;;;;;;5107580;28;20458;-50
2021/01/25 05:34:20;;;;;;;0.70;0.60;;;-0.30;99.90;;;;;;5105402;28;20846;-50
2021/01/25 05:36:47;;;;;;;1.37;0.80;;;-0.20;99.90;;;;;;5104768;28;20450;-49
2021/01/25 05:39:17;;;;;;;1.03;0.80;;;-0.10;99.90;;;;;;5111682;28;21039;-50
2021/01/25 05:41:54;;;;;;;1.97;1.23;;;-0.20;99.90;;;;;;5112668;28;20451;-50
2021/01/25 05:44:21;;;;;;;0.80;0.77;;;-0.20;99.90;;;;;;5104058;28;20858;-50
2021/01/25 05:46:47;;;;;;;1.33;0.80;;;-0.20;99.90;;;;;;5091986;28;21130;-50
2021/01/25 05:49:25;;;;;;;1.30;0.60;;;0.10;99.90;;;;;;5103215;28;20471;-50
2021/01/25 05:51:53;;;;;;;1.37;0.73;;;0.20;99.90;;;;;;5099991;28;20459;-50
2021/01/25 05:54:21;;;;;;;2.03;0.80;;;0.50;99.90;;;;;;5092675;28;20445;-50
2021/01/25 05:56:48;;;;;;;1.10;0.70;;;0.40;99.90;;;;;;5092220;28;20448;-50
2021/01/25 05:59:14;;;;;;;1.93;0.67;;;0.40;99.90;;;;;;5092004;28;20475;-50
2021/01/25 06:01:42;;;;;;;0.70;0.70;;;0.20;99.90;;;;;;5092008;28;20460;-49
2021/01/25 06:04:11;;;;;;;1.53;0.70;;;0.40;99.90;;;;;;5093613;28;20456;-50
2021/01/25 06:06:39;;;;;;;1.00;0.90;;;0.30;99.90;;;;;;5097166;28;20487;-50
2021/01/25 06:09:17;;;;;;;1.00;0.70;;;0.30;99.90;;;;;;5098399;28;20526;-50
2021/01/25 06:11:46;;;;;;;0.83;0.70;;;0.30;99.90;;;;;;5091679;28;20710;-50
2021/01/25 06:14:18;;;;;;;0.80;0.70;;;0.40;99.90;;;;;;5091085;28;20531;-49
2021/01/25 06:16:49;;;;;;;0.80;0.70;;;0.30;99.90;;;;;;5091702;28;20436;-50
2021/01/25 06:19:19;;;;;;;1.03;0.80;;;0.20;99.90;;;;;;5091239;28;21014;-50
2021/01/25 06:21:48;;;;;;;1.10;0.70;;;0.10;99.90;;;;;;5093764;28;20522;-50
2021/01/25 06:24:17;;;;;;;2.80;0.80;;;0.20;99.90;;;;;;5091318;28;20454;-50
2021/01/25 06:26:48;;;;;;;1.00;0.70;;;0.10;99.90;;;;;;5096626;28;20483;-49
2021/01/25 06:29:17;;;;;;;1.40;0.60;;;0.10;99.90;;;;;;5106107;28;21004;-49
2021/01/25 06:31:45;;;;;;;1.60;0.77;;;0.20;99.90;;;;;;5098929;28;20545;-50
2021/01/25 06:34:12;;;;;;;0.90;0.70;;;0.00;99.90;;;;;;5091308;28;20858;-49
2021/01/25 06:36:40;;;;;;;5.57;0.90;;;0.00;99.90;;;;;;5106472;28;20452;-50
2021/01/25 06:39:08;;;;;;;4.20;0.80;;;-0.10;99.90;;;;;;5091220;28;20475;-49
2021/01/25 06:41:38;;;;;;;2.23;0.80;;;-0.20;99.90;;;;;;5091346;28;20931;-49
2021/01/25 06:44:06;;;;;;;1.73;0.83;;;-0.20;99.90;;;;;;5095919;28;20935;-49
2021/01/25 06:46:35;;;;;;;1.30;0.80;;;-0.10;99.90;;;;;;5104812;28;20475;-49
2021/01/25 06:49:05;;;;;;;1.10;1.00;;;-0.10;99.90;;;;;;5108092;28;20461;-50
2021/01/25 06:51:31;;;;;;;1.63;1.00;;;-0.10;99.90;;;;;;5107357;28;20455;-49
2021/01/25 06:54:01;;;;;;;3.50;1.10;;;-0.10;99.90;;;;;;5100864;28;20448;-50
2021/01/25 06:56:44;;;;;;;1.97;1.00;;;-0.20;99.90;;;;;;5107740;28;20441;-49
2021/01/25 06:59:12;;;;;;;4.30;1.00;;;-0.10;99.90;;;;;;5095656;28;20843;-49
2021/01/25 07:01:42;;;;;;;1.17;1.07;;;-0.10;99.90;;;;;;5110926;28;20439;-50
2021/01/25 07:04:14;;;;;;;2.70;0.83;;;-0.10;99.90;;;;;;5102263;28;20450;-49
2021/01/25 07:06:47;;;;;;;1.23;0.97;;;-0.10;99.90;;;;;;5094893;28;20564;-49
2021/01/25 07:09:22;;;;;;;1.40;1.13;;;-0.20;99.90;;;;;;5107194;28;20471;-50
2021/01/25 07:11:50;;;;;;;1.20;1.10;;;-0.20;99.90;;;;;;5109691;28;20499;-49
2021/01/25 07:14:17;;;;;;;1.07;0.90;;;-0.30;99.90;;;;;;5111041;28;20830;-49
2021/01/25 07:16:45;;;;;;;1.57;1.47;;;-0.30;99.90;;;;;;5111057;28;20437;-49
2021/01/25 07:19:12;;;;;;;3.97;1.37;;;-0.30;99.90;;;;;;5111097;28;20469;-49
2021/01/25 07:21:39;;;;;;;1.93;1.50;;;-0.30;99.90;;;;;;5096603;28;20924;-49
2021/01/25 07:24:06;;;;;;;2.13;1.57;;;-0.10;99.90;;;;;;5095265;28;20852;-49
2021/01/25 07:26:36;;;;;;;2.60;1.73;;;-0.20;99.90;;;;;;5111236;28;20477;-49
2021/01/25 07:29:10;;;;;;;2.00;1.70;;;-0.30;99.90;;;;;;5111423;28;20561;-50
2021/01/25 07:31:36;;;;;;;2.73;1.60;;;-0.40;99.90;;;;;;5111516;28;20443;-49
2021/01/25 07:34:03;;;;;;;3.30;2.10;;;-0.50;99.90;;;;;;5110629;28;20438;-49
2021/01/25 07:36:31;;;;;;;2.47;1.60;;;-0.40;99.90;;;;;;5106764;27;20202;-49
2021/01/25 07:38:58;;;;;;;2.33;1.73;;;-0.20;99.90;;;;;;5102449;28;20487;-49
2021/01/25 07:41:25;;;;;;;3.23;1.70;;;-0.30;99.90;;;;;;5108813;28;20443;-49
2021/01/25 07:43:51;;;;;;;4.30;2.13;;;-0.30;99.90;;;;;;5100373;28;20451;-50
2021/01/25 07:46:23;;;;;;;2.10;1.70;;;-0.30;99.90;;;;;;5100272;28;20475;-50
2021/01/25 07:48:51;;;;;;;2.90;2.20;;;-0.20;99.90;;;;;;5109822;28;20467;-50
2021/01/25 07:51:20;;;;;;;3.60;2.43;;;-0.20;99.90;;;;;;5109654;28;20977;-49
2021/01/25 07:53:47;;;;;;;3.50;2.23;;;-0.10;99.90;;;;;;5110502;28;20452;-50
2021/01/25 07:56:17;;;;;;;3.63;2.03;;;-0.10;99.90;;;;;;5105124;28;20501;-49
2021/01/25 07:58:47;;;;;;;3.40;1.90;;;0.00;99.90;;;;;;5110179;28;20529;-50
2021/01/25 08:01:20;;;;;;;3.90;2.30;;;0.10;99.90;;;;;;5110435;28;20446;-50
2021/01/25 08:03:51;;;;;;;5.17;2.00;;;0.10;99.90;;;;;;5114141;28;20431;-50
2021/01/25 08:06:20;;;;;;;4.23;2.87;;;0.10;99.90;;;;;;5113861;28;20568;-50
2021/01/25 08:08:47;;;;;;;2.67;2.43;;;0.10;99.90;;;;;;5113023;28;20461;-50
2021/01/25 08:11:14;;;;;;;3.70;2.83;;;-0.10;99.90;;;;;;5109104;28;20751;-49
2021/01/25 08:13:54;;;;;;;3.40;2.40;;;-0.10;99.90;;;;;;5111935;28;20458;-50
2021/01/25 08:16:23;;;;;;;4.00;2.27;;;-0.10;99.90;;;;;;5111969;28;20456;-50
2021/01/25 08:18:56;;;;;;;3.50;2.30;;;-0.10;99.90;;;;;;5108559;28;20528;-49
2021/01/25 08:21:26;;;;;;;6.33;2.00;;;-0.10;99.90;;;;;;5098161;28;20448;-50
2021/01/25 08:23:58;;;;;;;7.03;1.90;;;0.00;99.90;;;;;;5093752;28;20510;-49
2021/01/25 08:26:27;;;;;;;2.10;1.80;;;0.10;99.90;;;;;;5093544;28;20483;-49
2021/01/25 08:28:58;;;;;;;2.00;1.73;;;0.10;99.90;;;;;;5094093;28;20465;-49
2021/01/25 08:31:32;;;;;;;3.00;2.03;;;0.10;99.90;;;;;;5093439;28;20454;-50
2021/01/25 08:34:01;;;;;;;3.10;1.80;;;-0.10;99.90;;;;;;5093151;28;20450;-49
2021/01/25 08:36:32;;;;;;;2.97;1.97;;;0.10;99.90;;;;;;5096595;28;20441;-50
2021/01/25 08:39:09;;;;;;;3.00;2.37;;;0.20;99.90;;;;;;5124304;22;20501;-48
2021/01/25 08:41:36;;;;;;;1.73;1.50;;;0.30;99.90;;;;;;5072468;28;20478;-49
2021/01/25 08:44:12;;;;;;;4.50;1.90;;;0.50;99.90;;;;;;5072400;28;20958;-49
2021/01/25 08:46:39;;;;;;;2.80;2.20;;;0.50;99.90;;;;;;5072306;28;20857;-48
2021/01/25 08:49:14;;;;;;;2.83;2.17;;;0.40;99.90;;;;;;5072408;28;20539;-48
2021/01/25 08:51:42;;;;;;;3.77;1.60;;;0.40;99.90;;;;;;5071972;28;20542;-48
2021/01/25 08:54:20;;;;;;;2.03;1.60;;;0.50;99.90;;;;;;5067150;28;20524;-49
2021/01/25 08:56:46;;;;;;;2.17;1.70;;;0.60;99.90;;;;;;5064127;28;20440;-48
2021/01/25 08:59:26;;;;;;;5.57;1.60;;;0.70;99.90;;;;;;5072211;28;20474;-48
2021/01/25 09:01:54;;;;;;;1.80;1.10;;;1.00;99.90;;;;;;5072099;28;20946;-49
2021/01/25 09:04:21;;;;;;;1.10;1.00;;;0.90;99.90;;;;;;5071711;28;20454;-49
2021/01/25 09:06:52;;;;;;;1.70;1.53;;;0.90;99.90;;;;;;5072411;28;20578;-48
2021/01/25 09:09:19;;;;;;;2.13;1.43;;;0.90;99.90;;;;;;5072188;28;20473;-49
2021/01/25 09:11:46;;;;;;;2.73;1.57;;;1.00;99.90;;;;;;5072076;28;20838;-49
2021/01/25 09:14:17;;;;;;;4.13;2.07;;;1.00;99.90;;;;;;5071553;28;20441;-48
2021/01/25 09:16:44;;;;;;;2.33;1.87;;;1.20;99.90;;;;;;5072263;28;20472;-49
2021/01/25 09:19:10;;;;;;;2.20;2.00;;;1.10;99.90;;;;;;5071541;28;20477;-48
2021/01/25 09:21:37;;;;;;;2.20;1.80;;;1.00;99.90;;;;;;5072083;28;20449;-48
2021/01/25 09:24:04;;;;;;;2.10;1.83;;;1.00;99.90;;;;;;5071698;28;20445;-48
2021/01/25 09:26:30;;;;;;;2.57;1.80;;;1.20;99.90;;;;;;5071249;28;20486;-48
2021/01/25 09:28:57;;;;;;;2.20;1.60;;;1.20;99.90;;;;;;5071395;28;20448;-48
2021/01/25 09:31:26;;;;;;;1.60;1.50;;;1.40;99.90;;;;;;5071717;28;20457;-48
2021/01/25 09:33:53;;;;;;;3.63;1.47;;;1.60;99.90;;;;;;5071556;28;20982;-48
2021/01/25 09:36:20;;;;;;;2.17;1.77;;;1.70;99.90;;;;;;5070697;28;20930;-48
2021/01/25 09:38:47;;;;;;;2.10;1.67;;;1.70;99.90;;;;;;5067468;28;20447;-48
2021/01/25 09:41:13;;;;;;;2.37;1.60;;;1.60;99.90;;;;;;5071538;28;20447;-48
2021/01/25 09:43:43;;;;;;;5.60;2.10;;;1.50;99.90;;;;;;5071326;28;21101;-48
2021/01/25 09:46:10;;;;;;;2.50;1.90;;;1.60;99.90;;;;;;5063799;28;20498;-48
2021/01/25 09:48:37;;;;;;;3.57;2.27;;;1.70;99.90;;;;;;5070580;28;20446;-49
2021/01/25 09:51:05;;;;;;;2.70;1.90;;;2.00;99.90;;;;;;5067169;28;20457;-48
2021/01/25 09:53:31;;;;;;;4.03;1.90;;;2.20;99.90;;;;;;5052012;28;20458;-49
2021/01/25 09:55:58;;;;;;;5.30;1.90;;;2.20;99.90;;;;;;5070569;28;20458;-49
2021/01/25 09:58:25;;;;;;;6.80;2.00;;;2.20;99.90;;;;;;5071146;28;20458;-49
2021/01/25 10:00:52;;;;;;;3.13;2.00;;;2.20;99.90;;;;;;5066995;28;20474;-49
2021/01/25 10:03:19;;;;;;;8.43;3.40;;;2.30;99.90;;;;;;5051235;28;20752;-48
2021/01/25 10:05:46;;;;;;;6.50;2.43;;;2.10;99.90;;;;;;5050949;28;20476;-48
2021/01/25 10:08:13;;;;;;;1.50;1.40;;;2.30;99.90;;;;;;5050881;28;20505;-48
2021/01/25 10:10:39;;;;;;;7.10;2.10;;;2.50;99.90;;;;;;5050868;28;20478;-49
2021/01/25 10:13:06;;;;;;;2.43;2.20;;;2.70;99.90;;;;;;5065152;28;20451;-48
2021/01/25 10:15:33;;;;;;;3.70;1.90;;;2.60;99.90;;;;;;5050762;28;20662;-49
2021/01/25 10:18:01;;;;;;;6.10;2.87;;;2.70;99.90;;;;;;5050995;28;20454;-48
2021/01/25 10:20:28;;;;;;;2.23;1.80;;;2.90;99.90;;;;;;5050821;28;20809;-48
2021/01/25 10:22:56;;;;;;;2.20;1.50;;;2.90;99.90;;;;;;5067434;28;20888;-48
2021/01/25 10:25:23;;;;;;;3.77;1.63;;;2.90;99.90;;;;;;5069438;28;20482;-48
2021/01/25 10:27:50;;;;;;;2.33;1.80;;;2.80;99.90;;;;;;5070760;28;20447;-49
2021/01/25 10:30:18;;;;;;;3.57;1.67;;;3.00;99.90;;;;;;5067246;28;20470;-48
2021/01/25 10:32:45;;;;;;;2.90;2.07;;;3.10;99.90;;;;;;5050567;28;20460;-48
2021/01/25 10:35:13;;;;;;;2.20;1.77;;;3.10;99.90;;;;;;5050200;28;20806;-49
2021/01/25 10:37:40;;;;;;;1.83;1.60;;;3.00;99.90;;;;;;5070071;28;20471;-49
2021/01/25 10:40:09;;;;;;;1.80;1.60;;;3.00;99.90;;;;;;5070225;28;20478;-48
2021/01/25 10:42:36;;;;;;;2.47;2.20;;;2.90;99.90;;;;;;5070414;28;20451;-49
2021/01/25 10:45:03;;;;;;;4.30;4.00;;;2.70;99.90;;;;;;5070175;28;20458;-49
2021/01/25 10:47:30;;;;;;;2.80;2.50;;;2.70;99.90;;;;;;5068646;28;20451;-49
2021/01/25 10:49:56;;;;;;;4.80;2.90;;;2.90;99.90;;;;;;5055507;28;20473;-49
2021/01/25 10:52:23;;;;;;;8.17;2.50;;;3.10;99.90;;;;;;5053065;28;20474;-49
2021/01/25 10:54:49;;;;;;;2.40;2.07;;;3.20;99.90;;;;;;5067227;28;20450;-49
2021/01/25 10:57:17;;;;;;;3.93;1.83;;;3.30;99.90;;;;;;5065168;28;20854;-49
2021/01/25 10:59:44;;;;;;;3.67;1.70;;;3.30;99.90;;;;;;5070365;28;20474;-49
2021/01/25 11:02:11;;;;;;;2.90;1.53;;;3.20;99.90;;;;;;5069866;28;20458;-48
2021/01/25 11:04:37;;;;;;;2.47;1.40;;;3.00;99.90;;;;;;5070086;28;20454;-48
2021/01/25 11:07:04;;;;;;;4.83;2.07;;;2.70;99.90;;;;;;5070100;28;20479;-48
2021/01/25 11:09:31;;;;;;;3.83;3.00;;;2.70;99.90;;;;;;5066818;28;20521;-48
2021/01/25 11:11:58;;;;;;;4.70;3.07;;;2.70;99.90;;;;;;5050559;28;20448;-48
2021/01/25 11:14:25;;;;;;;7.37;3.10;;;2.70;99.90;;;;;;5069874;28;20447;-49
2021/01/25 11:16:52;;;;;;;6.67;3.40;;;2.60;99.90;;;;;;5069788;28;20451;-49
2021/01/25 11:19:18;;;;;;;3.03;2.50;;;2.70;99.90;;;;;;5068767;28;20871;-49
2021/01/25 11:21:45;;;;;;;2.00;1.80;;;2.60;99.90;;;;;;5054637;28;20479;-49
2021/01/25 11:24:11;;;;;;;2.13;1.50;;;2.50;99.90;;;;;;5062693;28;20466;-48
2021/01/25 11:26:40;;;;;;;2.10;1.67;;;2.40;99.90;;;;;;5068254;28;20536;-49
2021/01/25 11:29:07;;;;;;;2.10;1.70;;;2.10;99.90;;;;;;5068341;28;20478;-49
2021/01/25 11:31:35;;;;;;;3.67;2.30;;;2.10;99.90;;;;;;5069373;28;20453;-49
2021/01/25 11:34:02;;;;;;;4.27;2.90;;;2.00;99.90;;;;;;5068499;28;20458;-49
2021/01/25 11:36:29;;;;;;;7.27;3.93;;;1.90;99.90;;;;;;5069338;28;20450;-49
2021/01/25 11:38:55;;;;;;;5.13;3.40;;;1.90;99.90;;;;;;5073535;28;20453;-49
2021/01/25 11:41:22;;;;;;;6.20;3.60;;;1.90;99.90;;;;;;5069930;28;20966;-48
2021/01/25 11:43:48;;;;;;;4.80;3.60;;;1.80;99.90;;;;;;5073545;28;20447;-49
2021/01/25 11:46:15;;;;;;;4.67;3.10;;;1.80;99.90;;;;;;5072932;28;20477;-49
2021/01/25 11:48:43;;;;;;;3.90;2.73;;;1.70;99.90;;;;;;5072739;28;20461;-49
2021/01/25 11:51:09;;;;;;;4.13;2.80;;;1.70;99.90;;;;;;5073276;28;21197;-48
2021/01/25 11:53:36;;;;;;;4.37;3.03;;;1.60;99.90;;;;;;5070771;28;20452;-49
2021/01/25 11:56:03;;;;;;;4.57;3.20;;;1.70;99.90;;;;;;5072435;28;20450;-49
2021/01/25 11:58:29;;;;;;;6.20;4.00;;;1.90;99.90;;;;;;5073567;28;20454;-50
2021/01/25 12:00:56;;;;;;;5.03;3.40;;;2.10;99.90;;;;;;5072757;28;20527;-49
2021/01/25 12:03:23;;;;;;;4.80;3.17;;;2.40;99.90;;;;;;5068984;28;20450;-50
2021/01/25 12:05:51;;;;;;;3.30;2.57;;;2.60;99.90;;;;;;5072519;28;21044;-49
2021/01/25 12:08:17;;;;;;;3.77;3.30;;;2.90;99.90;;;;;;5055921;28;20454;-49
2021/01/25 12:10:45;;;;;;;6.17;3.30;;;3.00;99.90;;;;;;5053300;28;20544;-50
2021/01/25 12:13:12;;;;;;;4.90;3.43;;;3.00;99.90;;;;;;5056694;28;20477;-50
2021/01/25 12:15:41;;;;;;;6.87;3.30;;;3.00;99.90;;;;;;5072217;28;20526;-50
2021/01/25 12:18:07;;;;;;;6.17;3.40;;;3.10;99.90;;;;;;5073129;28;20450;-49
2021/01/25 12:20:34;;;;;;;5.50;3.00;;;3.20;99.90;;;;;;5073249;28;20469;-50
2021/01/25 12:23:01;;;;;;;5.77;3.03;;;3.30;99.90;;;;;;5072545;28;20447;-49
2021/01/25 12:25:28;;;;;;;3.40;2.63;;;3.50;99.90;;;;;;5059436;28;20451;-50
2021/01/25 12:27:54;;;;;;;3.50;2.57;;;3.80;99.90;;;;;;5064871;28;20448;-49
2021/01/25 12:30:22;;;;;;;3.10;2.53;;;4.10;99.90;;;;;;5066247;28;20900;-49
2021/01/25 12:32:50;;;;;;;4.20;2.43;;;4.30;99.90;;;;;;5057889;28;20856;-50
2021/01/25 12:35:18;;;;;;;2.87;2.40;;;4.20;99.90;;;;;;5060444;28;20489;-49
2021/01/25 12:37:45;;;;;;;5.20;2.30;;;3.90;99.90;;;;;;5072844;28;20927;-49
2021/01/25 12:40:15;;;;;;;3.20;2.43;;;3.80;99.90;;;;;;5065568;28;20483;-49
2021/01/25 12:42:41;;;;;;;4.63;2.70;;;3.80;99.90;;;;;;5069742;28;20482;-50
2021/01/25 12:45:10;;;;;;;5.37;3.00;;;3.50;99.90;;;;;;5072793;28;20465;-49
2021/01/25 12:47:36;;;;;;;5.23;2.40;;;3.30;99.90;;;;;;5059919;28;20514;-49
2021/01/25 12:50:05;;;;;;;4.00;2.30;;;2.90;99.90;;;;;;5053274;28;21007;-50
2021/01/25 12:52:33;;;;;;;2.67;2.40;;;2.80;99.90;;;;;;5072358;28;20451;-50
2021/01/25 12:55:03;;;;;;;4.03;2.50;;;2.30;99.90;;;;;;5071892;28;20455;-49
2021/01/25 12:57:31;;;;;;;4.53;2.57;;;2.20;99.90;;;;;;5071510;28;20998;-49
2021/01/25 12:59:57;;;;;;;4.70;2.43;;;2.00;99.90;;;;;;5057055;28;20477;-49